Historique des mesures à Cassis (13260), France
Quotidien Résumé Fevrier 9, 2018 Unités:  Métrique/US    US   Métrique
« Précédent (Jour)
Suivant (Jour) »
Quotidien Hebdomadaire Mensuel Annuel Période au choix
  Maximum: Minimum: Moyenne:
Température: 32 °F /  TemperatureC °C 36.3 °F /  2.4 °C 41.2 °F /  5.1 °C
Point de rosée: 32 °F /  DewpointC °C 28.6 °F /  -1.9 °C 31.1 °F /  -0.5 °C
Humidité: Humidity % 56 % 64 %
Vitesse du vent: WindSpeedKMH mph /  0 km/h - 4 mph /  6.4 km/h
Rafales: WindSpeedGustKMH mph /  0 km/h - -
Vent:- - SW
Pression: 0 in /  PressurehPa hPa 29.8 in /  1009.7 hPa -
Précipitations: 0 in /  0.0 mm    
Historical Graphs
 
 
Mesures pour : Fevrier 9, 2018
Heure Temperature Point de rosée Pression Vent Vitesse du vent Rafales Humidité Pluie (par heure) Conditions
32 °F /  TemperatureC °C 32 °F /  DewpointC °C 0 in /  PressurehPa hPa Calm     Humidity % 0 in /  HourlyPrecipMM mm SoftwareType W/m2
00:12 38.3 °F /  3.5 °C 28.9 °F /  -1.7 °C 30 in /  1014.4 hPa Calm     69 % 0 in /  0.0 mm open2300-1.11 W/m2
01:12 37.8 °F /  3.2 °C 29.1 °F /  -1.6 °C 30 in /  1014.4 hPa Calm     71 % 0 in /  0.0 mm open2300-1.11 W/m2
02:12 37.4 °F /  3.0 °C 29.5 °F /  -1.4 °C 29.9 in /  1014.1 hPa Calm     73 % 0 in /  0.0 mm open2300-1.11 W/m2
03:12 37 °F /  2.8 °C 29.5 °F /  -1.4 °C 29.9 in /  1014.1 hPa Calm   2.9 mph /  4.7 km/h 74 % 0 in /  0.0 mm open2300-1.11 W/m2
04:12 36.3 °F /  2.4 °C 28.8 °F /  -1.8 °C 29.9 in /  1013.4 hPa North 6.1 mph /  9.8 km/h 9.3 mph /  15 km/h 74 % 0 in /  0.0 mm open2300-1.11 W/m2
05:12 36.3 °F /  2.4 °C 28.8 °F /  -1.8 °C 29.9 in /  1013.4 hPa North 6.8 mph /  10.9 km/h 6.8 mph /  10.9 km/h 74 % 0 in /  0.0 mm open2300-1.11 W/m2
06:12 36.3 °F /  2.4 °C 28.8 °F /  -1.8 °C 29.9 in /  1013.4 hPa NW 1.4 mph /  2.3 km/h 2.1 mph /  3.4 km/h 74 % 0 in /  0.0 mm open2300-1.11 W/m2
07:12 36.7 °F /  2.6 °C 28.6 °F /  -1.9 °C 29.9 in /  1013.4 hPa Calm     72 % 0 in /  0.0 mm open2300-1.11 W/m2
08:12 37 °F /  2.8 °C 28.6 °F /  -1.9 °C 29.9 in /  1013.4 hPa Calm   2.6 mph /  4.2 km/h 71 % 0 in /  0.0 mm open2300-1.11 W/m2
09:12 40.8 °F /  4.9 °C 30.4 °F /  -0.9 °C 29.9 in /  1013.4 hPa Calm     66 % 0 in /  0.0 mm open2300-1.11 W/m2
10:12 42.4 °F /  5.8 °C 31.8 °F /  -0.1 °C 29.9 in /  1013.1 hPa NNW 4.0 mph /  6.4 km/h 4.0 mph /  6.4 km/h 66 % 0 in /  0.0 mm open2300-1.11 W/m2
11:12 46 °F /  7.8 °C 34.2 °F /  1.2 °C 29.9 in /  1012.8 hPa ESE 7.6 mph /  12.2 km/h 7.6 mph /  12.2 km/h 63 % 0 in /  0.0 mm open2300-1.11 W/m2
12:12 48 °F /  8.9 °C 34.3 °F /  1.3 °C 29.9 in /  1012.8 hPa ESE 6.1 mph /  9.8 km/h 6.1 mph /  9.8 km/h 59 % 0 in /  0.0 mm open2300-1.11 W/m2
13:12 48.6 °F /  9.2 °C 33.4 °F /  0.8 °C 29.9 in /  1012.1 hPa West 2.9 mph /  4.7 km/h 2.9 mph /  4.7 km/h 56 % 0 in /  0.0 mm open2300-1.11 W/m2
14:12 47.8 °F /  8.8 °C 33.8 °F /  1.0 °C 29.9 in /  1011.1 hPa Calm   5.5 mph /  8.9 km/h 58 % 0 in /  0.0 mm open2300-1.11 W/m2
15:12 48 °F /  8.9 °C 34 °F /  1.1 °C 29.8 in /  1010.4 hPa NW 14.8 mph /  23.8 km/h 15.8 mph /  25.4 km/h 58 % 0 in /  0.0 mm open2300-1.11 W/m2
16:12 46.6 °F /  8.1 °C 33.1 °F /  0.6 °C 29.8 in /  1010.0 hPa NW 16.9 mph /  27.2 km/h 16.9 mph /  27.2 km/h 59 % 0 in /  0.0 mm open2300-1.11 W/m2
17:12 45.1 °F /  7.3 °C 32.5 °F /  0.3 °C 29.8 in /  1010.0 hPa NNW 10.5 mph /  16.9 km/h 14.8 mph /  23.8 km/h 61 % 0 in /  0.0 mm open2300-1.11 W/m2
18:12 43 °F /  6.1 °C 31.3 °F /  -0.4 °C 29.8 in /  1010.0 hPa NW 2.6 mph /  4.2 km/h 10.5 mph /  16.9 km/h 63 % 0 in /  0.0 mm open2300-1.11 W/m2
19:12 42.3 °F /  5.7 °C 30.9 °F /  -0.6 °C 29.8 in /  1010.0 hPa WNW 7.2 mph /  11.6 km/h 10.1 mph /  16.3 km/h 64 % 0 in /  0.0 mm open2300-1.11 W/m2
20:12 41.7 °F /  5.4 °C 30.7 °F /  -0.7 °C 29.8 in /  1010.4 hPa WNW 10.5 mph /  16.9 km/h 10.5 mph /  16.9 km/h 65 % 0 in /  0.0 mm open2300-1.11 W/m2
21:12 41 °F /  5.0 °C 30.6 °F /  -0.8 °C 29.8 in /  1010.4 hPa Calm     66 % 0 in /  0.0 mm open2300-1.11 W/m2
22:12 41.2 °F /  5.1 °C 30.9 °F /  -0.6 °C 29.8 in /  1010.0 hPa Calm   1.1 mph /  1.8 km/h 67 % 0 in /  0.0 mm open2300-1.11 W/m2
23:12 42.4 °F /  5.8 °C 31.5 °F /  -0.3 °C 29.8 in /  1009.7 hPa North 2.1 mph /  3.4 km/h 2.1 mph /  3.4 km/h 65 % 0 in /  0.0 mm open2300-1.11 W/m2
Observations météo à CASSIS
WU-History script by Weather Underground - 1 mb